メインページ
METAR-TAF:

METAR-TAF

空港 :

仁川国際空港, 大韓民国

緯度: 37-28N, 経度: 126-27E, 海抜: 7m

現時点の気象観測

当レポートは16分前の03:00(UTC)に作成
の風 8kt、東/南東から南西の間で変化する
気温 20°C
湿度 43%
気圧 1019 hPa
視程10km以上
1,500メートル以下は雲なし、積乱雲なし

METAR: RKSI 210300Z 17008KT 110V220 CAVOK 20/07 Q1019 NOSIG

時間: 12:16 (03:16 UTC)

予報

当レポートは4時間16分前の23:00(UTC)に作成
予報は21日の 00時(UTC)から 22日の 06時(UTC)まで有効
南/南東の風 7kt
視程10km以上
1,500メートル以下は雲なし、積乱雲なし
21日の 05時(UTC)から 21日の 06時(UTC)まで徐々に
西/北西の風 6kt
視程10km以上
高度3000ftの雲は散在している
高度18000ftの千切れ雲あり
21日の 13時(UTC)から 21日の 14時(UTC)まで徐々に
南/南東の風 5kt
視程: 6000m
22日の 05時(UTC)から 22日の 06時(UTC)まで徐々に
西/南西の風 6kt
高度1000ftの雲はほとんどない
高度3000ftの千切れ雲あり
高度10000ftの曇り

TAF: RKSI 202300Z 2100/2206 15007KT CAVOK TX23/2105Z TN16/2120Z TX21/2205Z BECMG 2105/2106 30006KT 9999 SCT030 BKN180 BECMG 2113/2114 15005KT 6000 BECMG 2205/2206 25006KT FEW010 BKN030 OVC100

4,000以上の空港の気象観測と天気予報(METAR報とTAF報)

利用可能な観測所は地図上に黄色い丸と赤い丸で示す。

丸の上にカーソルを重ねると観測所名を参照できる。

次にクリックすると気象観測と天気予報を参照できる。

マップの切り替え:黒色「×」印の緑ボタンをクリックして拡大、「-」印の緑ボタンをクリックして縮小、緑色の三角印をクリックして隣りの地図に切り替え


METAR-TAF: